createdAt,value
2022-11-06T04:21:37.520Z,11.501965794894295
2022-11-06T04:31:26.635Z,11.618219585676343
2022-11-06T04:34:29.074Z,11.568763534925619
2022-11-06T04:37:24.415Z,11.567478962538098
2022-11-06T04:41:26.560Z,11.661895081485635
2022-11-06T04:44:24.086Z,11.620146445342197
2022-11-06T04:47:19.398Z,11.613081293434153
2022-11-06T04:51:20.371Z,11.636203610815937
2022-11-06T04:54:17.889Z,11.62207330504898
2022-11-06T04:57:17.475Z,11.59445498649593
2022-11-06T05:01:16.813Z,11.592528127375772
2022-11-06T05:04:17.789Z,11.530226371212574
2022-11-06T05:07:18.432Z,11.516738367780636
2022-11-06T05:11:16.380Z,11.489120081296369
2022-11-06T05:14:16.838Z,11.447371524665504
2022-11-06T05:17:16.881Z,11.437094959826208
2022-11-06T05:31:17.274Z,11.28872718469147
2022-11-06T05:34:17.075Z,11.212295395232285
2022-11-06T05:37:17.196Z,11.167335549161361
2022-11-06T05:41:16.355Z,11.210368544229368
2022-11-06T05:44:16.364Z,11.144213351287181
2022-11-06T05:47:16.914Z,11.13136768834811
2022-11-06T05:51:16.650Z,11.105676367926936
2022-11-06T05:54:16.934Z,11.026033320860005
2022-11-06T05:57:17.631Z,11.051082336190394
2022-11-06T06:01:17.701Z,11.055578314033118
2022-11-06T06:04:17.113Z,11.082554185768823
2022-11-06T06:07:17.173Z,11.073562227632284
2022-11-06T06:11:16.547Z,11.105676367926936
2022-11-06T06:14:16.557Z,11.164766415773192
2022-11-06T06:17:17.018Z,11.18339263448588
2022-11-06T06:21:16.885Z,11.213579962590302
2022-11-06T06:24:16.841Z,11.230921623703853
2022-11-06T06:27:17.393Z,11.261751251646729
2022-11-06T06:31:18.057Z,11.298361448437209
2022-11-06T06:34:17.362Z,11.252759275747758
2022-11-06T06:37:20.169Z,11.232206191325622
2022-11-06T06:41:16.815Z,11.250190139940333
2022-11-06T06:44:17.039Z,11.277808353683213
2022-11-06T06:47:18.749Z,11.23605989430007
2022-11-06T06:51:22.663Z,11.323410538964618
2022-11-06T06:54:16.875Z,11.361305330088726
2022-11-06T06:57:16.851Z,11.365159038547427
2022-11-06T07:01:16.890Z,11.435810389303152
2022-11-06T07:04:16.916Z,11.46920922881436
2022-11-06T07:07:17.257Z,11.527657227547115
2022-11-06T07:11:17.190Z,11.632992177493815
2022-11-06T07:14:16.467Z,11.704286023997701
2022-11-06T07:17:17.573Z,11.776222214195878
2022-11-06T07:21:16.198Z,11.868711685412563
2022-11-06T07:24:18.682Z,11.927159941541413
2022-11-06T07:27:16.554Z,11.995884862303864
2022-11-06T07:31:20.291Z,12.111496996001005
2022-11-06T07:34:18.567Z,12.179579765886592
2022-11-06T07:37:18.275Z,12.229036149635158
2022-11-06T07:41:17.019Z,12.340794830396135
2022-11-06T07:44:17.347Z,12.424292785190573
2022-11-06T07:47:17.556Z,12.51999438174571
2022-11-06T07:51:16.342Z,12.613126904852924
2022-11-06T07:54:16.581Z,12.697267404490049
2022-11-06T07:57:17.649Z,12.789757814741824
2022-11-06T08:01:18.784Z,12.890598161146864
2022-11-06T08:04:17.938Z,12.947762483730912
2022-11-06T08:07:18.788Z,13.04282233587146
2022-11-06T08:11:16.447Z,13.184127705567516
2022-11-06T08:14:16.809Z,13.289464578895423
2022-11-06T08:17:16.698Z,13.368467314156533
2022-11-06T08:21:17.225Z,13.501423292231994
2022-11-06T08:24:21.777Z,13.574003207892474
2022-11-06T08:27:17.447Z,13.693471160121499
2022-11-06T08:31:16.480Z,13.764124324182285
2022-11-06T08:34:17.448Z,13.832208334336702
2022-11-06T08:37:16.961Z,13.904146211902207
2022-11-06T08:41:17.992Z,14.055729783509832
2022-11-06T08:44:17.380Z,14.14372544762482
2022-11-06T08:47:17.624Z,14.247778824815759
2022-11-06T08:51:17.006Z,14.356328462779583
2022-11-06T08:54:16.329Z,14.435974433599132
2022-11-06T08:57:16.316Z,14.536816609866582
2022-11-06T09:01:26.023Z,14.70317433034661
2022-11-06T09:04:16.871Z,14.853474618102428
2022-11-06T09:07:16.516Z,14.98643277252595
2022-11-06T09:11:17.412Z,15.187476149046507
2022-11-06T09:14:17.080Z,15.330069484873183
2022-11-06T09:17:17.725Z,15.525332794810037
2022-11-06T09:21:16.385Z,15.785470423111473
2022-11-06T09:24:17.501Z,16.001931191020503
2022-11-06T09:27:17.303Z,16.208757689131108
2022-11-06T09:31:16.214Z,16.488809226835382
2022-11-06T09:34:18.017Z,16.68535967551734
2022-11-06T09:37:22.212Z,16.85685992467952
2022-11-06T09:41:22.928Z,17.240970273096174
2022-11-06T09:44:30.126Z,17.46771176046177
2022-11-06T09:47:23.023Z,17.66619131791267
2022-11-06T09:51:27.786Z,17.831912446070056
2022-11-06T09:54:23.891Z,18.031035132200124
2022-11-06T09:57:20.707Z,18.24942825819344
2022-11-06T10:01:26.780Z,18.655383936217184
2022-11-06T10:04:29.024Z,18.831384272460127
2022-11-06T10:07:26.295Z,19.039501898923483
2022-11-06T10:11:39.092Z,19.304788330911197
2022-11-06T10:14:32.474Z,19.56429445312542
2022-11-06T10:17:28.598Z,19.764063285478915
2022-11-06T10:21:23.286Z,20.0370599894698
2022-11-06T10:24:22.035Z,20.234260472492316
2022-11-06T10:27:21.029Z,20.405125081213555
2022-11-06T10:31:48.821Z,20.682620168960785
2022-11-06T10:34:24.436Z,20.917078485558978
2022-11-06T10:37:23.673Z,21.068673774405124
2022-11-06T10:41:20.258Z,21.266518854376862
2022-11-06T10:44:23.184Z,21.446378392335554
2022-11-06T10:47:19.514Z,21.679553966899768
2022-11-06T10:51:36.696Z,21.835647041723224
2022-11-06T10:54:34.499Z,22.05469168594318
2022-11-06T10:57:52.337Z,22.190229839128826
2022-11-06T11:01:16.850Z,22.411202428187334
2022-11-06T11:04:17.638Z,22.532609108783436
2022-11-06T11:07:21.497Z,22.63024846182416
2022-11-06T11:11:19.785Z,22.828096946707593
2022-11-06T11:14:42.533Z,22.970059924083852
2022-11-06T11:17:19.755Z,23.115234963224886
2022-11-06T11:21:23.441Z,23.23150363552304
2022-11-06T11:24:17.415Z,23.345845348051807
2022-11-06T11:27:18.852Z,23.426783950755272
2022-11-06T11:31:18.384Z,23.6072901422217
2022-11-06T11:34:20.474Z,23.671527307664746
2022-11-06T11:37:24.875Z,23.792293301806875
2022-11-06T11:41:23.643Z,23.932330666470897
2022-11-06T11:44:18.735Z,24.02740202803043
2022-11-06T11:47:22.747Z,24.0203359098934
2022-11-06T11:51:26.513Z,24.15202274741905
2022-11-06T11:54:19.262Z,24.15202274741905
2022-11-06T11:57:20.577Z,24.28692165718685
2022-11-06T12:01:32.377Z,24.288848785922163
2022-11-06T12:04:23.009Z,24.43916495337362
2022-11-06T12:07:48.135Z,24.48091948852243
2022-11-06T12:11:21.425Z,24.56185910368449
2022-11-06T12:14:27.426Z,24.571494776965118
2022-11-06T12:17:22.164Z,24.590766126595916
2022-11-06T12:21:27.075Z,24.639586897311165
2022-11-06T12:24:24.101Z,24.753288004612934
2022-11-06T12:27:24.545Z,24.778340810121517
2022-11-06T12:31:23.939Z,24.805963142160998
2022-11-06T12:34:26.441Z,24.908101605753473
2022-11-06T12:37:24.036Z,24.902962560813467
2022-11-06T12:51:26.982Z,24.931227311585097
2022-11-06T12:54:34.549Z,24.953068261393128
2022-11-06T12:57:28.338Z,24.98133302777169
2022-11-06T13:01:26.944Z,24.99225350804854
2022-11-06T13:04:31.885Z,24.962703976214925
2022-11-06T13:07:32.272Z,25.030796390118574
2022-11-06T13:11:27.123Z,25.059703562414505
2022-11-06T13:14:24.011Z,25.073193579304007
2022-11-06T13:17:24.572Z,25.141928458405893
2022-11-06T13:21:24.543Z,25.03978973162384
2022-11-06T13:24:25.046Z,24.993538270520457
2022-11-06T13:27:25.453Z,24.989683983159285
2022-11-06T13:31:23.537Z,24.867631634729424
2022-11-06T13:34:21.115Z,24.793757924641614
2022-11-06T13:37:19.374Z,24.780267949293282
2022-11-06T13:41:20.644Z,24.701897655984887
2022-11-06T13:44:19.026Z,24.64215641228693
2022-11-06T13:48:00.605Z,24.570210020468586
2022-11-06T13:51:22.985Z,24.523316420793797
2022-11-06T13:54:25.599Z,24.410900355870034
2022-11-06T13:57:41.715Z,24.42117839030725
2022-11-06T14:01:30.519Z,24.492482286268295
2022-11-06T14:04:33.976Z,24.472568579955624
2022-11-06T14:07:18.562Z,24.52010453129187
2022-11-06T14:11:18.509Z,24.46421767215734
2022-11-06T14:14:25.191Z,24.420536013120817
2022-11-06T14:17:23.274Z,24.350516927061836
2022-11-06T14:21:47.355Z,24.27086225265084
2022-11-06T14:24:30.682Z,24.256087602987918
2022-11-06T14:28:05.219Z,24.11926161388401
2022-11-06T14:31:58.572Z,24.015196915230263
2022-11-06T14:34:45.144Z,23.837901777576555
2022-11-06T14:37:49.900Z,23.771095003970913
2022-11-06T14:41:56.081Z,23.806425503115406
2022-11-06T14:45:16.766Z,23.728056050871327
2022-11-06T14:47:25.702Z,23.637481604316054
2022-11-06T14:51:16.451Z,23.482027800404467
2022-11-06T14:54:23.263Z,23.19103441224006
2022-11-06T14:57:33.198Z,23.08183183630108
2022-11-06T15:01:26.245Z,22.908392721106157
2022-11-06T15:04:20.032Z,22.901969056539475
2022-11-06T15:07:58.262Z,22.82231565369302
2022-11-06T15:12:07.174Z,22.548025841752313
2022-11-06T15:15:22.189Z,22.454240756691433
2022-11-06T15:17:17.637Z,22.283372289257024
2022-11-06T15:21:22.041Z,22.196011091870968
2022-11-06T15:24:25.016Z,21.923650251661094
2022-11-06T15:27:23.788Z,21.896028797015695
2022-11-06T15:31:18.452Z,21.736081469155398
2022-11-06T15:34:29.773Z,21.545301290180305
2022-11-06T15:37:20.547Z,21.410406456222063
2022-11-06T15:41:19.175Z,21.250459984396365
2022-11-06T15:44:19.040Z,21.06931612786284
2022-11-06T15:47:21.129Z,20.962685516159762
2022-11-06T15:51:23.803Z,20.802097481991222
2022-11-06T15:54:30.279Z,20.5605736137848
2022-11-06T15:57:20.580Z,20.341532576466214
2022-11-06T16:01:32.155Z,20.306845774480554
2022-11-06T16:04:21.669Z,20.06339618553211
2022-11-06T16:07:19.313Z,19.980533545684104
2022-11-06T16:11:19.824Z,19.849495106895574
2022-11-06T16:14:22.596Z,19.727449672353487
2022-11-06T16:17:22.044Z,19.571360224258388
2022-11-06T16:21:19.216Z,19.57071788140538
2022-11-06T16:24:17.600Z,19.239911916329582
2022-11-06T16:27:17.730Z,19.129429416084896
2022-11-06T16:31:20.132Z,18.966917610789913
2022-11-06T16:34:20.494Z,18.899472085366504
2022-11-06T16:37:38.027Z,18.773573905384183
2022-11-06T16:42:00.888Z,18.74274172467158
2022-11-06T16:44:29.338Z,18.51728172164521
2022-11-06T16:47:18.431Z,18.34063966055546
2022-11-06T16:51:31.285Z,18.244289590366314
2022-11-06T16:54:22.633Z,18.149224288060577
2022-11-06T16:57:20.546Z,18.045166436210273
2022-11-06T17:01:20.421Z,17.97707926440671
2022-11-06T17:04:21.759Z,17.70216176962167
2022-11-06T17:07:21.001Z,17.727854958144963
2022-11-06T17:21:18.669Z,17.05212652065711
2022-11-06T17:24:36.067Z,16.84401345283586
2022-11-06T17:27:16.777Z,16.872275693292977
2022-11-06T17:31:18.773Z,16.81703586788499
2022-11-06T17:34:17.365Z,16.58836904141499
2022-11-06T17:37:18.953Z,16.54212188815145
2022-11-06T17:41:30.334Z,16.442562124321647
2022-11-06T17:44:17.138Z,16.359060471157953
2022-11-06T17:47:17.172Z,16.159941454520684
2022-11-06T17:52:22.018Z,16.1310371174608
2022-11-06T17:54:18.729Z,15.99486569786095
2022-11-06T17:57:22.835Z,15.928064698819071
2022-11-06T18:01:18.943Z,15.843278886251209
2022-11-06T18:04:20.908Z,15.745646836598462
2022-11-06T18:07:19.578Z,15.644803316670822
2022-11-06T18:11:16.578Z,15.651226467463948
2022-11-06T18:14:17.867Z,15.574791002518396
2022-11-06T18:17:17.416Z,15.54267528015771
2022-11-06T18:21:16.747Z,15.458532141485284
2022-11-06T18:24:17.349Z,15.37310445457697
2022-11-06T18:27:16.618Z,15.284465285524856
2022-11-06T18:31:16.734Z,15.330069484873183
2022-11-06T18:34:20.669Z,15.188760772693149
2022-11-06T18:37:16.567Z,15.164352926517404
2022-11-06T18:41:18.555Z,15.1360912180965
2022-11-06T18:44:17.538Z,15.078283205565914
2022-11-06T18:47:17.022Z,14.955601878784728
2022-11-06T18:51:33.440Z,14.98193659986946
2022-11-06T18:54:16.849Z,14.883020857801693
2022-11-06T18:57:17.355Z,14.797593712806702
2022-11-06T19:01:16.636Z,14.735932064149528
2022-11-06T19:04:16.351Z,14.69546662999428
2022-11-06T19:07:16.410Z,14.64922044163186
2022-11-06T19:11:18.443Z,14.673628149218803
2022-11-06T19:14:17.085Z,14.526539695053724
2022-11-06T19:17:16.908Z,14.437901353114285
2022-11-06T19:21:17.238Z,14.444966725020004
2022-11-06T19:24:16.847Z,14.384589928292645
2022-11-06T19:27:16.815Z,14.278609478013824
2022-11-06T19:31:19.111Z,14.256128792355685
2022-11-06T19:34:20.884Z,14.158498450697607
2022-11-06T19:37:19.911Z,14.179694502786514
2022-11-06T19:41:16.267Z,14.141798534357894
2022-11-06T19:44:17.312Z,13.969661114316205
2022-11-06T19:47:17.847Z,13.919561478802006
2022-11-06T19:51:17.774Z,14.000491672999578
2022-11-06T19:54:17.239Z,13.853404310191763
2022-11-06T19:57:28.447Z,13.724301624945019
2022-11-06T20:01:18.157Z,13.760270513814703
2022-11-06T20:04:17.100Z,13.67548672714629
2022-11-06T20:07:16.986Z,13.529042191347344
2022-11-06T20:11:16.573Z,13.597126025077978
2022-11-06T20:14:20.007Z,13.493715693979539
2022-11-06T20:17:18.202Z,13.449397016735839
2022-11-06T20:21:17.042Z,13.457746910793139
2022-11-06T20:24:16.485Z,13.349840646799203
2022-11-06T20:27:16.257Z,13.315798816338155
2022-11-06T20:31:19.014Z,13.317725712060929
2022-11-06T20:34:16.612Z,13.292033772455762
2022-11-06T20:37:20.527Z,13.193762170607169
2022-11-06T20:41:16.308Z,13.192477575209432
2022-11-06T20:44:16.198Z,13.05245678590445
2022-11-06T20:47:16.421Z,12.917574578552102
2022-11-06T20:51:20.389Z,12.968315956834704
2022-11-06T20:54:20.697Z,12.859767979649131
2022-11-06T20:57:17.911Z,12.764066024657586
2022-11-06T21:01:20.948Z,12.764708319321016
2022-11-06T21:04:17.656Z,12.735805063968655
2022-11-06T21:07:17.802Z,12.633680302141238
2022-11-06T21:11:18.733Z,12.590646631900745
2022-11-06T21:14:17.482Z,12.495587253570557
2022-11-06T21:17:16.924Z,12.498798717428963
2022-11-06T21:21:18.899Z,12.458334281121278
2022-11-06T21:24:18.157Z,12.403097143233754
2022-11-06T21:27:16.987Z,12.377405462652678
2022-11-06T21:31:18.891Z,12.403097143233754
2022-11-06T21:34:18.414Z,12.26436215453432
2022-11-06T21:37:16.862Z,12.236101349514502
2022-11-06T21:41:18.414Z,12.259866116783178
2022-11-06T21:44:17.802Z,12.425577369710755
2022-11-06T21:47:19.735Z,12.374836294994747
2022-11-06T21:51:17.537Z,12.340152538734037
2022-11-06T22:01:18.746Z,12.15966876186003
2022-11-06T22:04:17.804Z,12.083878528445439
2022-11-06T22:07:17.230Z,12.101220355928309
2022-11-06T22:11:18.485Z,12.094797456474044
2022-11-06T22:14:17.289Z,12.071032732447293
2022-11-06T22:17:18.146Z,12.033779934339055
2022-11-06T22:21:19.242Z,12.012584383622743
2022-11-06T22:24:17.451Z,11.823109226014003
2022-11-06T22:27:16.760Z,11.746034698862877
2022-11-06T22:31:15.926Z,11.742180974224265
2022-11-06T22:34:17.429Z,11.662537368345602
2022-11-06T22:37:18.280Z,11.590601268296542
2022-11-06T22:41:18.725Z,11.564267531648875
2022-11-06T22:44:16.660Z,11.55142180922885
2022-11-06T22:47:16.905Z,11.49233150952532
2022-11-06T22:51:19.064Z,11.471778370824541
2022-11-06T22:54:17.442Z,11.387639007819326
2022-11-06T22:57:16.641Z,11.282304342762746
2022-11-06T23:01:21.551Z,11.31249170378178
2022-11-06T23:04:17.018Z,11.213579962590302
2022-11-06T23:07:18.659Z,11.179538933748791
2022-11-06T23:11:22.541Z,11.171831532765736
2022-11-06T23:14:16.932Z,11.130725405248905
2022-11-06T23:17:17.511Z,11.087692447961308
2022-11-06T23:21:18.183Z,11.162839565779814
2022-11-06T23:24:17.081Z,11.05300918380999
2022-11-06T23:27:17.499Z,10.948317189110913
2022-11-06T23:31:16.453Z,10.930975582021347
2022-11-06T23:34:17.732Z,10.911064852043728
2022-11-06T23:37:16.689Z,10.884089031303393
2022-11-06T23:41:48.202Z,10.792242844648717
